Time;durP1;ratioP1;P1;durP2;ratioP2;P2;SDS_P1;SDS_P2;PMS_P1;PMS_P2;Temp;Humidity;BMP_temperature;BMP_pressure;BME280_temperature;BME280_humidity;BME280_pressure;Samples;Min_cycle;Max_cycle;Signal;HPM_P1;HPM_P2
2023/05/06 00:01:32;;;;;;;3.27;2.97;;;15.40;99.90;;;;;;6142959;23;21028;-78
2023/05/06 00:04:00;;;;;;;2.87;2.50;;;15.40;99.90;;;;;;6145564;23;20447;-78
2023/05/06 00:06:28;;;;;;;3.23;2.97;;;15.40;99.90;;;;;;6141139;23;20436;-78
2023/05/06 00:08:56;;;;;;;2.77;2.57;;;15.40;99.90;;;;;;6149548;23;20999;-78
2023/05/06 00:11:22;;;;;;;3.20;3.00;;;15.40;99.90;;;;;;6146756;23;20516;-78
2023/05/06 00:13:49;;;;;;;3.33;3.13;;;15.40;99.90;;;;;;6150923;23;20848;-78
2023/05/06 00:16:16;;;;;;;3.23;3.03;;;15.50;99.90;;;;;;6148930;23;20464;-78
2023/05/06 00:18:43;;;;;;;3.03;2.83;;;15.40;99.90;;;;;;6148256;23;20523;-78
2023/05/06 00:21:11;;;;;;;2.80;2.60;;;15.40;99.90;;;;;;6148189;23;20428;-78
2023/05/06 00:23:39;;;;;;;3.83;3.00;;;15.40;99.90;;;;;;6149269;23;20444;-78
2023/05/06 00:26:06;;;;;;;3.47;3.10;;;15.40;99.90;;;;;;6153096;23;20494;-78
2023/05/06 00:28:33;;;;;;;3.73;2.80;;;15.40;99.90;;;;;;6151588;23;20460;-78
2023/05/06 00:31:00;;;;;;;2.93;2.63;;;15.40;99.90;;;;;;6146507;23;20502;-78
2023/05/06 00:33:27;;;;;;;2.90;2.60;;;15.40;99.90;;;;;;6149393;23;20464;-78
2023/05/06 00:35:54;;;;;;;3.13;2.80;;;15.40;99.90;;;;;;6146216;23;20444;-78
2023/05/06 00:38:22;;;;;;;3.20;3.00;;;15.40;99.90;;;;;;6146184;23;21052;-78
2023/05/06 00:40:50;;;;;;;3.70;3.40;;;15.30;99.90;;;;;;6150299;23;20511;-78
2023/05/06 00:43:17;;;;;;;3.67;3.37;;;15.30;99.90;;;;;;6148698;23;20437;-78
2023/05/06 00:45:44;;;;;;;3.03;2.80;;;15.20;99.90;;;;;;6146565;23;20932;-78
2023/05/06 00:48:12;;;;;;;3.03;2.73;;;15.20;99.90;;;;;;6150633;23;20453;-78
2023/05/06 00:50:40;;;;;;;3.10;2.90;;;15.20;99.90;;;;;;6153252;23;20819;-78
2023/05/06 00:53:09;;;;;;;3.53;3.30;;;15.20;99.90;;;;;;6138790;23;20994;-78
2023/05/06 00:55:37;;;;;;;4.07;3.77;;;15.10;99.90;;;;;;6148314;23;20432;-78
2023/05/06 00:58:06;;;;;;;3.63;3.33;;;15.10;99.90;;;;;;6158283;23;20495;-78
2023/05/06 01:00:33;;;;;;;4.00;3.60;;;15.00;99.90;;;;;;6150496;23;20464;-77
2023/05/06 01:03:00;;;;;;;3.70;3.40;;;15.00;99.90;;;;;;6153887;23;21176;-78
2023/05/06 01:05:35;;;;;;;3.20;3.00;;;15.00;99.90;;;;;;6150582;23;20524;-78
2023/05/06 01:08:13;;;;;;;3.63;3.33;;;15.00;99.90;;;;;;6152802;23;20547;-78
2023/05/06 01:10:49;;;;;;;3.93;3.63;;;15.00;99.90;;;;;;6145654;23;20456;-78
2023/05/06 01:13:24;;;;;;;4.13;3.80;;;14.90;99.90;;;;;;6161311;23;20474;-78
2023/05/06 01:15:54;;;;;;;3.80;3.37;;;14.90;99.90;;;;;;6156793;23;20431;-78
2023/05/06 01:18:24;;;;;;;3.70;3.40;;;14.90;99.90;;;;;;6154716;23;20824;-78
2023/05/06 01:20:53;;;;;;;4.40;4.00;;;14.90;99.90;;;;;;6148418;23;20472;-78
2023/05/06 01:23:21;;;;;;;4.30;3.90;;;14.90;99.90;;;;;;6148937;23;20855;-78
2023/05/06 01:25:48;;;;;;;3.90;3.60;;;14.90;99.90;;;;;;6147795;23;21133;-78
2023/05/06 01:28:15;;;;;;;3.47;3.17;;;15.10;99.90;;;;;;6151175;23;20452;-77
2023/05/06 01:30:49;;;;;;;4.47;4.00;;;14.90;99.90;;;;;;6151750;23;20432;-78
2023/05/06 01:33:23;;;;;;;4.20;3.80;;;14.90;99.90;;;;;;6165462;23;21049;-78
2023/05/06 01:35:59;;;;;;;4.70;4.30;;;14.80;99.90;;;;;;6143638;23;20440;-78
2023/05/06 01:38:34;;;;;;;6.03;5.47;;;14.80;99.90;;;;;;6150632;23;20456;-77
2023/05/06 01:41:02;;;;;;;5.80;5.30;;;14.80;99.90;;;;;;6151580;23;20465;-78
2023/05/06 01:43:36;;;;;;;5.43;5.03;;;14.70;99.90;;;;;;6149885;23;20450;-78
2023/05/06 01:46:04;;;;;;;6.07;5.47;;;14.70;99.90;;;;;;6159538;23;20459;-78
2023/05/06 01:48:36;;;;;;;5.57;5.20;;;14.70;99.90;;;;;;6151243;23;20468;-77
2023/05/06 01:51:03;;;;;;;6.30;5.70;;;14.60;99.90;;;;;;6152604;23;20993;-78
2023/05/06 01:53:32;;;;;;;6.37;5.83;;;14.60;99.90;;;;;;6151388;23;20562;-78
2023/05/06 01:55:59;;;;;;;6.33;5.83;;;14.50;99.90;;;;;;6150345;23;20712;-78
2023/05/06 01:58:26;;;;;;;6.30;5.80;;;14.50;99.90;;;;;;6147578;23;20459;-78
2023/05/06 02:00:52;;;;;;;7.87;7.17;;;14.50;99.90;;;;;;6147888;23;20472;-77
2023/05/06 02:03:20;;;;;;;7.10;6.60;;;14.50;99.90;;;;;;6150549;23;20468;-78
2023/05/06 02:05:46;;;;;;;7.13;6.63;;;14.50;99.90;;;;;;6149548;23;20460;-78
2023/05/06 02:08:14;;;;;;;7.43;6.87;;;14.50;99.90;;;;;;6148143;23;20467;-78
2023/05/06 02:10:42;;;;;;;7.67;7.17;;;14.50;99.90;;;;;;6159193;23;20962;-78
2023/05/06 02:13:09;;;;;;;7.83;7.23;;;14.50;99.90;;;;;;6167687;23;20575;-77
2023/05/06 02:15:36;;;;;;;6.90;6.40;;;14.50;99.90;;;;;;6137636;23;20528;-78
2023/05/06 02:18:04;;;;;;;7.50;6.90;;;14.50;99.90;;;;;;6154725;23;20474;-77
2023/05/06 02:20:30;;;;;;;8.10;7.40;;;14.50;99.90;;;;;;6149428;23;20522;-78
2023/05/06 02:22:57;;;;;;;9.00;8.17;;;14.50;99.90;;;;;;6150931;23;20460;-78
2023/05/06 02:25:24;;;;;;;8.23;7.47;;;14.50;99.90;;;;;;6144635;23;20452;-78
2023/05/06 02:27:53;;;;;;;7.77;7.07;;;14.50;99.90;;;;;;6148411;23;20491;-78
2023/05/06 02:30:20;;;;;;;7.67;7.00;;;14.40;99.90;;;;;;6149576;23;20490;-78
2023/05/06 02:32:47;;;;;;;8.20;7.60;;;14.40;99.90;;;;;;6146723;23;20873;-78
2023/05/06 02:35:14;;;;;;;8.00;7.30;;;14.40;99.90;;;;;;6156542;23;20461;-78
2023/05/06 02:37:41;;;;;;;7.87;7.27;;;14.40;99.90;;;;;;6147858;23;20452;-78
2023/05/06 02:40:09;;;;;;;7.20;6.60;;;14.40;99.90;;;;;;6134910;23;20437;-78
2023/05/06 02:42:36;;;;;;;7.73;7.00;;;14.40;99.90;;;;;;6148830;23;20503;-78
2023/05/06 02:45:05;;;;;;;7.90;7.27;;;14.40;99.90;;;;;;6142389;23;20498;-78
2023/05/06 02:47:32;;;;;;;6.97;6.37;;;14.40;99.90;;;;;;6149402;23;20468;-78
2023/05/06 02:49:59;;;;;;;6.80;6.30;;;14.40;99.90;;;;;;6153211;23;20503;-78
2023/05/06 02:52:26;;;;;;;7.40;6.70;;;14.40;99.90;;;;;;6148394;23;20436;-77
2023/05/06 02:54:54;;;;;;;7.17;6.57;;;14.50;99.90;;;;;;6148864;23;20903;-77
2023/05/06 02:57:21;;;;;;;7.80;7.23;;;14.40;99.90;;;;;;6147390;23;20458;-77
2023/05/06 02:59:47;;;;;;;6.87;6.37;;;14.50;99.90;;;;;;6170792;23;21141;-78
2023/05/06 03:02:16;;;;;;;7.17;6.57;;;14.50;99.90;;;;;;6158129;23;20445;-78
2023/05/06 03:04:43;;;;;;;7.20;6.70;;;14.50;99.90;;;;;;6147816;23;20521;-78
2023/05/06 03:07:11;;;;;;;7.63;7.00;;;14.50;99.90;;;;;;6146465;23;20558;-78
2023/05/06 03:09:38;;;;;;;7.60;7.00;;;14.50;99.90;;;;;;6148931;23;20717;-77
2023/05/06 03:12:06;;;;;;;7.40;6.87;;;14.50;99.90;;;;;;6145745;23;20440;-78
2023/05/06 03:14:32;;;;;;;6.83;6.33;;;14.50;99.90;;;;;;6147846;23;20964;-78
2023/05/06 03:17:00;;;;;;;6.60;6.20;;;14.50;99.90;;;;;;6169881;23;20460;-77
2023/05/06 03:19:28;;;;;;;7.20;6.70;;;14.50;99.90;;;;;;6172576;23;20439;-78
2023/05/06 03:21:56;;;;;;;7.37;6.67;;;14.50;99.90;;;;;;6164681;23;20463;-78
2023/05/06 03:24:23;;;;;;;6.80;6.23;;;14.50;99.90;;;;;;6162266;23;20847;-77
2023/05/06 03:26:50;;;;;;;7.37;6.77;;;14.50;99.90;;;;;;6145064;23;20550;-77
2023/05/06 03:29:17;;;;;;;8.47;7.77;;;14.60;99.90;;;;;;6150097;23;20516;-78
2023/05/06 03:31:45;;;;;;;6.67;6.17;;;14.60;99.90;;;;;;6150118;23;20463;-78
2023/05/06 03:34:12;;;;;;;7.67;7.03;;;14.60;99.90;;;;;;6159962;23;20466;-78
2023/05/06 03:36:40;;;;;;;6.90;6.50;;;14.60;99.90;;;;;;6150169;23;20951;-78
2023/05/06 03:39:07;;;;;;;8.90;7.20;;;14.60;99.90;;;;;;6152300;23;20855;-78
2023/05/06 03:41:34;;;;;;;6.70;6.20;;;14.50;99.90;;;;;;6145371;23;20466;-78
2023/05/06 03:44:01;;;;;;;7.33;6.63;;;14.50;99.90;;;;;;6149548;23;20439;-78
2023/05/06 03:46:28;;;;;;;7.77;7.10;;;14.50;99.90;;;;;;6154264;23;20821;-78
2023/05/06 03:48:55;;;;;;;7.87;7.27;;;14.50;99.90;;;;;;6155679;23;20515;-78
2023/05/06 03:51:22;;;;;;;8.60;7.80;;;14.50;99.90;;;;;;6151928;23;20484;-77
2023/05/06 03:53:51;;;;;;;7.97;7.37;;;14.40;99.90;;;;;;6140108;23;20554;-77
2023/05/06 03:56:17;;;;;;;8.17;7.50;;;14.40;99.90;;;;;;6147288;23;20850;-78
2023/05/06 03:58:44;;;;;;;8.47;7.83;;;14.40;99.90;;;;;;6144768;23;20443;-78
2023/05/06 04:01:12;;;;;;;9.43;8.63;;;14.30;99.90;;;;;;6145052;23;20493;-78
2023/05/06 04:03:38;;;;;;;10.23;9.33;;;14.30;99.90;;;;;;6149232;23;20465;-78
2023/05/06 04:06:06;;;;;;;8.73;8.13;;;14.20;99.90;;;;;;6146069;23;20455;-78
2023/05/06 04:08:33;;;;;;;9.53;8.73;;;14.10;99.90;;;;;;6156741;23;20962;-78
2023/05/06 04:11:05;;;;;;;10.20;9.50;;;14.10;99.90;;;;;;6147883;23;20523;-78
2023/05/06 04:13:33;;;;;;;10.07;9.03;;;14.00;99.90;;;;;;6172856;23;20455;-78
2023/05/06 04:16:01;;;;;;;9.50;8.73;;;14.00;99.90;;;;;;6146565;23;20444;-78
2023/05/06 04:18:28;;;;;;;10.80;9.70;;;13.90;99.90;;;;;;6145585;23;21003;-77
2023/05/06 04:20:55;;;;;;;9.80;9.10;;;13.90;99.90;;;;;;6146008;23;20513;-77
2023/05/06 04:23:22;;;;;;;10.93;10.03;;;13.90;99.90;;;;;;6142386;23;20939;-78
2023/05/06 04:25:49;;;;;;;9.90;9.00;;;13.90;99.90;;;;;;6147147;23;20443;-78
2023/05/06 04:28:17;;;;;;;9.60;8.83;;;13.80;99.90;;;;;;6150629;23;20447;-78
2023/05/06 04:30:45;;;;;;;10.90;10.10;;;13.80;99.90;;;;;;6146742;23;20561;-78
2023/05/06 04:33:13;;;;;;;10.70;9.90;;;13.80;99.90;;;;;;6147363;23;20491;-77
2023/05/06 04:35:41;;;;;;;10.13;9.33;;;13.80;99.90;;;;;;6141669;23;20435;-78
2023/05/06 04:38:08;;;;;;;10.63;9.83;;;13.80;99.90;;;;;;6149207;23;20539;-78
2023/05/06 04:40:38;;;;;;;10.47;9.63;;;13.80;99.90;;;;;;6162386;23;21044;-78
2023/05/06 04:43:05;;;;;;;10.40;9.60;;;13.80;99.90;;;;;;6148044;23;20434;-77
2023/05/06 04:45:36;;;;;;;10.80;9.90;;;13.80;99.90;;;;;;6136975;23;20438;-77
2023/05/06 04:48:03;;;;;;;11.10;10.10;;;13.80;99.90;;;;;;6136091;23;20460;-78
2023/05/06 04:50:30;;;;;;;11.00;10.10;;;13.80;99.90;;;;;;6161264;23;20439;-77
2023/05/06 04:52:57;;;;;;;10.13;9.33;;;13.80;99.90;;;;;;6133122;23;20478;-77
2023/05/06 04:55:24;;;;;;;9.23;8.60;;;13.80;99.90;;;;;;6146297;23;20580;-77
2023/05/06 04:57:51;;;;;;;9.23;8.63;;;13.90;99.90;;;;;;6164541;23;20498;-77
2023/05/06 05:00:19;;;;;;;9.50;8.80;;;13.90;99.90;;;;;;6151618;23;20427;-77
2023/05/06 05:02:47;;;;;;;10.93;10.03;;;14.00;99.90;;;;;;6149497;23;21010;-78
2023/05/06 05:05:14;;;;;;;10.17;9.37;;;14.00;99.90;;;;;;6147135;23;21022;-77
2023/05/06 05:07:41;;;;;;;9.43;8.73;;;14.00;99.90;;;;;;6154521;23;21038;-77
2023/05/06 05:10:09;;;;;;;9.97;9.27;;;14.10;99.90;;;;;;6146026;23;21073;-78
2023/05/06 05:12:36;;;;;;;9.03;8.33;;;14.10;99.90;;;;;;6148119;23;20444;-77
2023/05/06 05:15:04;;;;;;;10.70;9.60;;;14.20;99.90;;;;;;6150011;23;20554;-77
2023/05/06 05:17:31;;;;;;;10.60;9.80;;;14.20;99.90;;;;;;6150676;23;20994;-76
2023/05/06 05:20:00;;;;;;;10.80;9.90;;;14.20;99.90;;;;;;6150934;23;20467;-77
2023/05/06 05:22:27;;;;;;;10.70;9.70;;;14.20;99.90;;;;;;6145636;23;20440;-77
2023/05/06 05:24:54;;;;;;;10.17;9.37;;;14.30;99.90;;;;;;6147956;23;20858;-78
2023/05/06 05:27:21;;;;;;;10.50;9.50;;;14.20;99.90;;;;;;6151176;23;20452;-78
2023/05/06 05:29:48;;;;;;;14.17;10.67;;;14.30;99.90;;;;;;6168928;23;20527;-80
2023/05/06 05:32:15;;;;;;;10.43;9.40;;;14.20;99.90;;;;;;6148249;23;20530;-81
2023/05/06 05:34:42;;;;;;;10.30;9.30;;;14.30;99.90;;;;;;6160224;23;20460;-77
2023/05/06 05:37:11;;;;;;;7.63;7.03;;;14.30;99.90;;;;;;6147019;23;20809;-78
2023/05/06 05:39:38;;;;;;;10.47;8.50;;;14.40;99.90;;;;;;6147087;23;20855;-76
2023/05/06 05:42:05;;;;;;;7.03;6.33;;;14.50;99.90;;;;;;6150851;23;20482;-78
2023/05/06 05:44:32;;;;;;;6.60;5.60;;;14.70;99.90;;;;;;6171357;23;20420;-78
2023/05/06 05:46:59;;;;;;;6.13;5.63;;;14.80;99.90;;;;;;6146440;23;20851;-78
2023/05/06 05:49:26;;;;;;;5.47;5.07;;;14.90;99.90;;;;;;6144930;23;20528;-76
2023/05/06 05:51:53;;;;;;;6.17;5.03;;;15.00;99.90;;;;;;6137977;23;20438;-76
2023/05/06 05:54:21;;;;;;;5.60;4.80;;;15.10;99.90;;;;;;6146618;23;20487;-76
2023/05/06 05:56:49;;;;;;;5.83;4.97;;;15.20;99.90;;;;;;6148656;23;20441;-76
2023/05/06 05:59:16;;;;;;;4.83;4.33;;;15.20;99.90;;;;;;6146474;23;20918;-76
2023/05/06 06:01:43;;;;;;;4.90;4.40;;;15.30;99.90;;;;;;6143734;23;20984;-76
2023/05/06 06:04:10;;;;;;;5.10;4.60;;;15.40;99.90;;;;;;6140990;23;20470;-77
2023/05/06 06:06:38;;;;;;;4.93;4.17;;;15.50;99.90;;;;;;6136176;23;20460;-72
2023/05/06 06:09:05;;;;;;;4.80;4.13;;;15.60;99.90;;;;;;6142805;23;20549;-76
2023/05/06 06:11:33;;;;;;;3.80;3.47;;;15.70;99.90;;;;;;6131461;23;20956;-80
2023/05/06 06:14:00;;;;;;;4.67;4.23;;;15.90;99.90;;;;;;6145314;23;20458;-80
2023/05/06 06:16:28;;;;;;;4.70;4.30;;;16.00;99.90;;;;;;6132760;23;22207;-81
2023/05/06 06:18:55;;;;;;;6.00;4.83;;;16.20;99.90;;;;;;6143391;23;20476;-81
2023/05/06 06:21:22;;;;;;;7.73;7.03;;;16.30;99.90;;;;;;6146183;23;20489;-80
2023/05/06 06:23:49;;;;;;;4.70;4.30;;;16.40;99.90;;;;;;6149327;23;20428;-81
2023/05/06 06:26:16;;;;;;;4.53;4.20;;;16.50;99.90;;;;;;6147759;23;20487;-80
2023/05/06 06:28:45;;;;;;;4.80;4.30;;;16.50;99.90;;;;;;6138193;23;20478;-80
2023/05/06 06:31:12;;;;;;;3.60;3.40;;;16.50;99.90;;;;;;6147183;23;20458;-78
2023/05/06 06:33:39;;;;;;;3.87;3.53;;;16.70;99.90;;;;;;6148341;23;20433;-88
2023/05/06 06:36:07;;;;;;;4.33;4.03;;;16.70;99.90;;;;;;6137800;23;20877;-86
2023/05/06 06:38:34;;;;;;;6.97;6.30;;;16.80;99.90;;;;;;6141768;23;20494;-87
2023/05/06 06:41:01;;;;;;;4.50;4.10;;;16.80;99.90;;;;;;6142935;23;20437;-82
2023/05/06 06:43:28;;;;;;;6.37;5.77;;;17.00;99.90;;;;;;6142671;23;20437;-82
2023/05/06 06:45:57;;;;;;;5.13;4.50;;;17.10;99.90;;;;;;6134466;23;20539;-84
2023/05/06 06:48:23;;;;;;;3.97;3.67;;;17.20;99.90;;;;;;6156617;23;20425;-81
2023/05/06 06:50:51;;;;;;;6.20;5.60;;;17.30;99.90;;;;;;6146396;23;20442;-81
2023/05/06 06:53:18;;;;;;;7.80;7.10;;;17.30;99.90;;;;;;6147179;23;20436;-80
2023/05/06 06:55:45;;;;;;;8.10;7.30;;;17.40;99.90;;;;;;6139714;23;20475;-81
2023/05/06 06:58:12;;;;;;;5.63;5.23;;;17.50;99.90;;;;;;6138474;23;20781;-79
2023/05/06 07:00:39;;;;;;;5.30;4.70;;;17.60;99.90;;;;;;6146529;23;20429;-83
2023/05/06 07:03:07;;;;;;;4.20;3.80;;;17.80;99.90;;;;;;6145178;23;21000;-74
2023/05/06 07:05:35;;;;;;;3.83;3.50;;;17.90;99.90;;;;;;6141290;23;20461;-73
2023/05/06 07:08:02;;;;;;;3.37;3.17;;;18.10;99.90;;;;;;6143555;23;20435;-74
2023/05/06 07:10:29;;;;;;;7.47;6.63;;;18.40;99.90;;;;;;6146673;23;20459;-75
2023/05/06 07:12:57;;;;;;;7.40;6.80;;;18.70;99.90;;;;;;6142881;23;20548;-74
2023/05/06 07:15:24;;;;;;;5.70;5.30;;;19.00;99.90;;;;;;6143220;23;20516;-75
2023/05/06 07:17:50;;;;;;;3.90;3.60;;;19.40;99.90;;;;;;6144069;23;20455;-77
2023/05/06 07:20:19;;;;;;;4.10;3.70;;;19.70;99.90;;;;;;6139935;23;20444;-76
2023/05/06 07:22:46;;;;;;;3.27;3.07;;;20.10;99.90;;;;;;6122783;23;21169;-76
2023/05/06 07:25:13;;;;;;;3.27;2.80;;;20.70;99.90;;;;;;6132244;23;20432;-75
2023/05/06 07:27:41;;;;;;;3.00;2.80;;;21.10;99.90;;;;;;6143756;23;20828;-75
2023/05/06 07:30:08;;;;;;;2.93;2.10;;;21.60;99.90;;;;;;6129367;23;20433;-75
2023/05/06 07:32:36;;;;;;;3.23;3.00;;;21.90;99.90;;;;;;6139591;23;20914;-77
2023/05/06 07:35:04;;;;;;;2.87;2.47;;;22.10;99.90;;;;;;6136919;23;21040;-75
2023/05/06 07:37:32;;;;;;;2.40;2.20;;;22.30;99.90;;;;;;6138293;23;20452;-76
2023/05/06 07:39:59;;;;;;;3.20;2.30;;;22.50;99.90;;;;;;6131782;23;21071;-73
2023/05/06 07:42:26;;;;;;;3.50;2.13;;;22.60;99.90;;;;;;6145305;23;20835;-75
2023/05/06 07:44:53;;;;;;;3.40;2.73;;;22.80;99.90;;;;;;6144322;23;20472;-75
2023/05/06 07:47:27;;;;;;;3.40;2.57;;;23.00;99.90;;;;;;6134728;23;20452;-75
2023/05/06 07:49:55;;;;;;;2.87;2.00;;;23.10;99.90;;;;;;6133154;23;20470;-77
2023/05/06 07:52:22;;;;;;;3.30;2.97;;;23.20;99.90;;;;;;6142733;23;20908;-75
2023/05/06 07:54:50;;;;;;;2.53;2.33;;;23.10;99.90;;;;;;6140253;23;20472;-74
2023/05/06 07:57:28;;;;;;;3.00;2.30;;;22.90;99.90;;;;;;6135376;23;20774;-89
2023/05/06 07:59:57;;;;;;;1.93;1.83;;;22.60;99.90;;;;;;6133265;23;20436;-90
2023/05/06 08:02:25;;;;;;;2.10;1.90;;;22.50;99.90;;;;;;6138163;23;20520;-76
2023/05/06 08:04:53;;;;;;;2.20;2.10;;;22.40;99.90;;;;;;6136582;23;20505;-75
2023/05/06 08:07:20;;;;;;;2.57;2.10;;;22.60;99.90;;;;;;6144785;23;20527;-76
2023/05/06 08:09:47;;;;;;;2.50;2.30;;;22.90;99.90;;;;;;6144144;23;20506;-75
2023/05/06 08:12:16;;;;;;;2.87;2.67;;;22.60;99.90;;;;;;6138416;23;21015;-75
2023/05/06 08:14:43;;;;;;;2.90;2.60;;;22.40;99.90;;;;;;6146755;23;20464;-75
2023/05/06 08:17:10;;;;;;;3.37;2.73;;;22.30;99.90;;;;;;6145096;23;20440;-76
2023/05/06 08:19:37;;;;;;;2.47;2.27;;;21.90;99.90;;;;;;6149782;23;20437;-81
2023/05/06 08:22:04;;;;;;;5.00;2.60;;;21.60;99.90;;;;;;6147157;23;20436;-79
2023/05/06 08:24:31;;;;;;;4.10;2.47;;;21.20;99.90;;;;;;6141407;23;20544;-80
2023/05/06 08:26:58;;;;;;;2.03;1.93;;;21.00;99.90;;;;;;6132852;23;20631;-80
2023/05/06 08:29:26;;;;;;;2.97;2.77;;;20.90;99.90;;;;;;6143435;23;20437;-79
2023/05/06 08:31:53;;;;;;;2.77;2.57;;;20.80;99.90;;;;;;6144334;23;20884;-80
2023/05/06 08:34:21;;;;;;;2.90;2.70;;;20.90;99.90;;;;;;6141434;23;20464;-80
2023/05/06 08:36:48;;;;;;;3.10;2.90;;;20.90;99.90;;;;;;6141177;23;20456;-79
2023/05/06 08:39:15;;;;;;;3.23;3.03;;;20.90;99.90;;;;;;6141199;23;20439;-80
2023/05/06 08:41:47;;;;;;;3.30;3.10;;;20.90;99.90;;;;;;6139951;23;20439;-80
2023/05/06 08:44:17;;;;;;;3.50;3.23;;;20.90;99.90;;;;;;6143056;23;20458;-81
2023/05/06 08:46:46;;;;;;;2.43;2.30;;;20.80;99.90;;;;;;6134709;23;20464;-80
2023/05/06 08:49:13;;;;;;;3.50;3.20;;;20.70;99.90;;;;;;6126246;23;20464;-80
2023/05/06 08:51:43;;;;;;;2.73;2.53;;;20.60;99.90;;;;;;6134588;23;21150;-79
2023/05/06 08:57:26;;;;;;;1.90;1.80;;;20.30;99.90;;;;;;6035073;22;20821;-79
2023/05/06 08:59:53;;;;;;;2.17;2.00;;;20.60;99.90;;;;;;5028596;28;20494;-81
2023/05/06 09:02:23;;;;;;;1.70;1.60;;;21.00;99.90;;;;;;5042522;28;20448;-79
2023/05/06 09:04:49;;;;;;;1.60;1.50;;;21.60;99.90;;;;;;5042663;28;20475;-79
2023/05/06 09:07:17;;;;;;;2.37;1.60;;;22.20;99.90;;;;;;5042956;28;20483;-78
2023/05/06 09:09:44;;;;;;;1.70;1.50;;;22.60;99.90;;;;;;5043383;28;20476;-79
2023/05/06 09:12:12;;;;;;;2.00;1.67;;;22.90;99.90;;;;;;5055374;28;20995;-79
2023/05/06 09:14:39;;;;;;;1.70;1.60;;;23.10;99.90;;;;;;5050674;28;20538;-79
2023/05/06 09:17:22;;;;;;;1.60;1.50;;;23.40;99.90;;;;;;5039895;28;21170;-79
2023/05/06 09:19:52;;;;;;;1.80;1.70;;;23.60;99.90;;;;;;5044206;28;20488;-79
2023/05/06 09:22:21;;;;;;;2.10;2.00;;;23.90;99.90;;;;;;5050821;28;20528;-79
2023/05/06 09:24:55;;;;;;;1.80;1.70;;;24.10;99.90;;;;;;5042484;28;20455;-79
2023/05/06 09:27:23;;;;;;;1.80;1.70;;;24.10;99.90;;;;;;5047683;28;20520;-79
2023/05/06 09:30:00;;;;;;;1.57;1.47;;;24.20;99.90;;;;;;5048495;28;20811;-79
2023/05/06 09:32:28;;;;;;;2.00;1.60;;;24.00;99.90;;;;;;5039950;28;20493;-78
2023/05/06 09:34:56;;;;;;;1.50;1.40;;;23.50;99.90;;;;;;5044703;28;20475;-79
2023/05/06 09:37:25;;;;;;;1.77;1.67;;;23.20;99.90;;;;;;5035866;28;20503;-79
2023/05/06 09:39:55;;;;;;;1.73;1.63;;;22.80;99.90;;;;;;5038278;28;20513;-78
2023/05/06 09:42:24;;;;;;;1.47;1.37;;;22.40;99.90;;;;;;5045518;28;20452;-79
2023/05/06 09:44:54;;;;;;;1.50;1.40;;;21.90;99.90;;;;;;5044866;28;20958;-78
2023/05/06 09:47:21;;;;;;;1.93;1.73;;;21.80;99.90;;;;;;5043398;28;20851;-78
2023/05/06 09:49:48;;;;;;;1.60;1.47;;;21.70;99.90;;;;;;5045748;28;20460;-78
2023/05/06 09:52:18;;;;;;;1.77;1.40;;;21.80;99.90;;;;;;5043674;28;20451;-75
2023/05/06 09:54:46;;;;;;;2.13;1.93;;;21.90;99.90;;;;;;5047979;28;20504;-76
2023/05/06 09:57:15;;;;;;;2.33;2.13;;;22.10;99.90;;;;;;5047346;28;20522;-77
2023/05/06 09:59:44;;;;;;;2.80;1.80;;;22.00;99.90;;;;;;5049775;28;20465;-77
2023/05/06 10:02:12;;;;;;;2.53;1.80;;;22.30;99.90;;;;;;5050286;28;21030;-78
2023/05/06 10:04:41;;;;;;;3.03;2.17;;;22.60;99.90;;;;;;5045901;28;20443;-77
2023/05/06 10:07:11;;;;;;;2.17;1.97;;;22.90;99.90;;;;;;5045523;28;20476;-79
2023/05/06 10:09:41;;;;;;;2.03;1.93;;;23.00;99.90;;;;;;5048080;28;20541;-76
2023/05/06 10:12:09;;;;;;;2.00;1.90;;;23.00;99.90;;;;;;5045448;28;20455;-77
2023/05/06 10:14:36;;;;;;;2.07;1.90;;;22.80;99.90;;;;;;5048748;28;20806;-77
2023/05/06 10:17:07;;;;;;;2.00;1.80;;;23.00;99.90;;;;;;5047317;28;20530;-78
2023/05/06 10:19:34;;;;;;;2.10;1.70;;;23.40;99.90;;;;;;5047735;28;20539;-78
2023/05/06 10:22:07;;;;;;;1.30;1.10;;;23.70;99.90;;;;;;5046990;28;20543;-77
2023/05/06 10:24:45;;;;;;;2.50;1.53;;;24.80;99.90;;;;;;5046904;28;20486;-78
2023/05/06 10:27:12;;;;;;;1.33;1.23;;;25.80;99.90;;;;;;5046313;28;20478;-78
2023/05/06 10:29:41;;;;;;;1.63;1.33;;;26.60;99.70;;;;;;5048216;28;20464;-78
2023/05/06 10:32:10;;;;;;;1.30;1.20;;;27.10;98.50;;;;;;5046579;28;20451;-78
2023/05/06 10:34:47;;;;;;;1.67;1.40;;;27.60;96.80;;;;;;5045200;28;20530;-78
2023/05/06 10:37:14;;;;;;;1.37;1.27;;;27.80;96.10;;;;;;5045909;28;20893;-79
2023/05/06 10:39:43;;;;;;;1.53;1.10;;;28.20;95.30;;;;;;5043825;28;20816;-78
2023/05/06 10:42:10;;;;;;;1.60;1.50;;;28.40;94.00;;;;;;5044557;28;20542;-80
2023/05/06 10:45:03;;;;;;;1.57;1.47;;;28.70;94.40;;;;;;5044774;28;20465;-82
2023/05/06 10:48:07;;;;;;;1.77;1.53;;;28.80;93.90;;;;;;5029314;28;20517;-80
2023/05/06 10:50:34;;;;;;;2.20;2.00;;;28.80;93.00;;;;;;5042883;28;20471;-84
2023/05/06 10:53:01;;;;;;;2.53;2.13;;;28.70;92.80;;;;;;5049465;28;20497;-81
2023/05/06 10:55:31;;;;;;;1.97;1.80;;;28.70;92.70;;;;;;5044612;28;21240;-79
2023/05/06 10:58:04;;;;;;;2.50;1.77;;;28.70;92.50;;;;;;5046845;28;20463;-80
2023/05/06 11:00:32;;;;;;;1.80;1.60;;;28.50;91.60;;;;;;5041568;28;20542;-79
2023/05/06 11:03:02;;;;;;;1.50;1.40;;;28.30;91.50;;;;;;5041822;28;20467;-79
2023/05/06 11:05:30;;;;;;;2.60;1.67;;;27.90;90.80;;;;;;5043466;28;20941;-79
2023/05/06 11:08:08;;;;;;;1.57;1.40;;;27.90;91.10;;;;;;5046313;28;20479;-80
2023/05/06 11:10:37;;;;;;;1.70;1.60;;;27.70;90.40;;;;;;5048225;28;20452;-79
2023/05/06 11:13:22;;;;;;;1.60;1.50;;;27.50;90.80;;;;;;5040919;28;20529;-79
2023/05/06 11:15:50;;;;;;;1.60;1.50;;;27.70;91.20;;;;;;5044190;28;20476;-79
2023/05/06 11:18:43;;;;;;;1.40;1.30;;;27.90;89.90;;;;;;5044306;28;20471;-78
2023/05/06 11:21:38;;;;;;;3.40;1.30;;;28.10;88.80;;;;;;5042890;28;20538;-78
2023/05/06 11:24:13;;;;;;;1.40;1.30;;;28.20;87.90;;;;;;5042275;28;20455;-77
2023/05/06 11:26:43;;;;;;;1.60;1.50;;;28.40;87.70;;;;;;5046647;28;21005;-78
2023/05/06 11:29:10;;;;;;;2.27;1.50;;;28.60;87.40;;;;;;5041932;28;20451;-88
2023/05/06 11:31:42;;;;;;;1.80;1.70;;;29.00;88.80;;;;;;5047873;28;20496;-78
2023/05/06 11:34:12;;;;;;;1.60;1.50;;;29.50;84.70;;;;;;5042766;28;21123;-80
2023/05/06 11:36:51;;;;;;;2.00;1.80;;;29.90;83.30;;;;;;5044852;28;21067;-79
2023/05/06 11:39:18;;;;;;;1.70;1.60;;;30.30;82.40;;;;;;5043741;28;21158;-78
2023/05/06 11:41:47;;;;;;;5.20;2.00;;;30.30;81.70;;;;;;5047117;28;20547;-79
2023/05/06 11:44:24;;;;;;;1.87;1.77;;;30.30;83.00;;;;;;5042751;28;20487;-80
2023/05/06 11:46:55;;;;;;;3.23;2.30;;;30.20;81.90;;;;;;5042447;28;21041;-79
2023/05/06 11:49:22;;;;;;;2.00;1.87;;;30.10;82.40;;;;;;5048053;28;20459;-78
2023/05/06 11:51:49;;;;;;;2.13;1.93;;;30.20;82.50;;;;;;5041418;28;20491;-77
2023/05/06 11:54:19;;;;;;;2.23;2.00;;;30.30;79.50;;;;;;5041145;28;20513;-77
2023/05/06 11:56:49;;;;;;;2.50;2.20;;;29.80;79.90;;;;;;5045256;28;20494;-78
2023/05/06 11:59:18;;;;;;;2.00;1.80;;;29.90;81.50;;;;;;5044261;28;20485;-77
2023/05/06 12:01:45;;;;;;;1.70;1.60;;;30.10;79.40;;;;;;5048671;28;20489;-77
2023/05/06 12:04:13;;;;;;;1.50;1.40;;;30.10;80.80;;;;;;5046462;28;21158;-78
2023/05/06 12:06:40;;;;;;;1.70;1.60;;;30.30;80.40;;;;;;5045278;28;20494;-78
2023/05/06 12:09:11;;;;;;;2.43;1.97;;;30.60;78.10;;;;;;5042849;28;20455;-78
2023/05/06 12:11:39;;;;;;;3.17;1.40;;;30.70;76.50;;;;;;5044919;28;21016;-79
2023/05/06 12:14:09;;;;;;;3.50;2.80;;;30.80;76.90;;;;;;5042645;28;20459;-79
2023/05/06 12:16:37;;;;;;;3.33;2.27;;;30.80;76.20;;;;;;5044564;28;20517;-79
2023/05/06 12:19:05;;;;;;;2.40;1.77;;;30.50;75.50;;;;;;5039114;28;20456;-79
2023/05/06 12:21:36;;;;;;;3.60;2.90;;;30.30;76.40;;;;;;5043303;28;20447;-78
2023/05/06 12:24:04;;;;;;;1.70;1.40;;;30.30;74.70;;;;;;5046484;28;20448;-78
2023/05/06 12:26:46;;;;;;;1.97;1.47;;;30.10;74.50;;;;;;5041263;28;20481;-78
2023/05/06 12:29:16;;;;;;;1.47;1.30;;;30.30;74.50;;;;;;5038263;28;20462;-78
2023/05/06 12:31:45;;;;;;;1.40;1.30;;;30.10;72.90;;;;;;5040215;28;20487;-79
2023/05/06 12:34:14;;;;;;;1.60;1.50;;;29.70;74.00;;;;;;5045522;28;20470;-88
2023/05/06 12:36:42;;;;;;;1.37;1.27;;;29.70;74.30;;;;;;5038976;28;20509;-87
2023/05/06 12:39:11;;;;;;;2.57;2.37;;;30.00;73.00;;;;;;5041630;28;20950;-74
2023/05/06 12:41:40;;;;;;;2.47;2.27;;;30.10;74.20;;;;;;5039936;28;20485;-74
2023/05/06 12:44:35;;;;;;;3.07;2.73;;;30.30;72.90;;;;;;5041575;28;20542;-74
2023/05/06 12:47:03;;;;;;;3.13;2.83;;;30.60;71.70;;;;;;5040003;28;21048;-74
2023/05/06 12:49:47;;;;;;;1.73;1.50;;;30.40;72.50;;;;;;5035738;28;20475;-74
2023/05/06 12:52:15;;;;;;;1.30;1.20;;;30.20;72.70;;;;;;5038832;28;20454;-76
2023/05/06 12:54:43;;;;;;;1.93;1.63;;;30.00;71.70;;;;;;5043340;28;20943;-76
2023/05/06 12:57:10;;;;;;;1.73;1.63;;;29.60;71.00;;;;;;5045696;28;20487;-76